Time;durP1;ratioP1;P1;durP2;ratioP2;P2;SDS_P1;SDS_P2;PMS_P1;PMS_P2;Temp;Humidity;BMP_temperature;BMP_pressure;BME280_temperature;BME280_humidity;BME280_pressure;Samples;Min_cycle;Max_cycle;Signal;HPM_P1;HPM_P2
2023/06/20 07:10:22;;;;;;;9.30;6.35;;;;;;;22.29;73.09;96386.16;2087280;28;20935;-61
2023/06/20 07:12:29;;;;;;;9.98;6.07;;;;;;;22.32;73.51;96371.72;2083635;28;20955;-61
2023/06/20 07:14:42;;;;;;;12.57;7.30;;;;;;;22.41;72.70;96383.31;2084216;28;21291;-61
2023/06/20 07:17:04;;;;;;;10.48;6.35;;;;;;;22.40;72.45;96379.84;2102006;27;20572;-61
2023/06/20 07:18:07;;;;;;;11.80;6.45;;;;;;;22.30;71.90;96382.50;2080677;28;20214;-61
2023/06/20 07:20:20;;;;;;;10.93;6.75;;;;;;;22.25;72.29;96383.97;2100454;27;20572;-61
2023/06/20 07:21:21;;;;;;;13.32;6.63;;;;;;;22.39;72.23;96378.16;2095458;28;20725;-61
2023/06/20 07:22:23;;;;;;;15.43;6.57;;;;;;;22.69;72.32;96373.50;2096087;27;20800;-61
2023/06/20 07:23:25;;;;;;;13.63;6.93;;;;;;;22.86;70.41;96369.16;2084895;28;20262;-61
2023/06/20 07:24:26;;;;;;;9.70;6.20;;;;;;;22.79;69.94;96381.41;2084762;28;20705;-61
2023/06/20 07:25:28;;;;;;;9.73;6.35;;;;;;;22.81;70.39;96377.59;2083853;28;20626;-61
2023/06/20 07:26:29;;;;;;;11.43;7.00;;;;;;;22.95;70.22;96367.41;2082472;28;20201;-61
2023/06/20 07:27:31;;;;;;;8.63;6.15;;;;;;;23.06;70.03;96374.31;2080090;28;20250;-62
2023/06/20 07:28:32;;;;;;;7.97;6.32;;;;;;;23.13;69.58;96375.38;2087429;28;20201;-61
2023/06/20 07:29:34;;;;;;;10.70;6.60;;;;;;;23.09;69.17;96377.50;2090935;28;20227;-61
2023/06/20 07:30:35;;;;;;;9.60;6.78;;;;;;;23.18;69.44;96378.44;2088697;28;20394;-61
2023/06/20 07:31:36;;;;;;;9.57;6.55;;;;;;;22.96;68.88;96377.09;2092502;28;20211;-60
2023/06/20 07:32:38;;;;;;;9.57;6.20;;;;;;;23.00;69.64;96376.59;2086724;28;20715;-61
2023/06/20 07:33:39;;;;;;;9.50;6.53;;;;;;;23.09;68.55;96369.53;2087803;28;20669;-61
2023/06/20 07:34:41;;;;;;;11.20;6.63;;;;;;;23.25;68.71;96382.19;2091691;28;20827;-61
2023/06/20 07:35:43;;;;;;;12.32;7.13;;;;;;;23.31;68.74;96392.22;2092880;28;20201;-61
2023/06/20 07:36:44;;;;;;;8.95;5.93;;;;;;;23.38;68.20;96387.09;2090786;28;20213;-61
2023/06/20 07:37:46;;;;;;;14.55;6.85;;;;;;;23.60;68.57;96391.09;2089715;28;20682;-61
2023/06/20 07:38:47;;;;;;;9.60;6.43;;;;;;;23.48;67.97;96390.50;2090707;28;20242;-61
2023/06/20 07:39:49;;;;;;;10.18;6.65;;;;;;;23.45;67.40;96387.31;2090804;28;20212;-61
2023/06/20 07:40:50;;;;;;;14.27;6.95;;;;;;;23.46;67.68;96387.19;2090439;28;20197;-61
2023/06/20 07:41:52;;;;;;;8.20;5.88;;;;;;;23.46;67.94;96389.84;2091604;28;20200;-61
2023/06/20 07:42:53;;;;;;;9.75;6.85;;;;;;;23.31;68.87;96389.56;2086818;28;20213;-61
2023/06/20 07:43:54;;;;;;;13.90;6.50;;;;;;;23.46;68.51;96391.66;2091466;28;20270;-61
2023/06/20 07:44:58;;;;;;;9.50;5.72;;;;;;;23.71;68.09;96386.50;2089139;28;20193;-61
2023/06/20 07:45:59;;;;;;;11.30;6.25;;;;;;;23.58;68.21;96382.41;2091479;28;20197;-61
2023/06/20 07:47:01;;;;;;;10.25;6.45;;;;;;;23.63;68.59;96385.44;2090087;28;20201;-61
2023/06/20 07:48:04;;;;;;;12.55;6.10;;;;;;;23.71;67.52;96392.66;2086861;28;20533;-63
2023/06/20 07:49:06;;;;;;;10.50;6.90;;;;;;;23.89;67.36;96386.44;2090148;28;20192;-63
2023/06/20 07:50:08;;;;;;;10.85;5.78;;;;;;;24.06;67.07;96384.72;2090837;28;20204;-63
2023/06/20 07:51:09;;;;;;;13.13;6.32;;;;;;;24.22;66.53;96384.78;2091019;28;20205;-63
2023/06/20 07:52:11;;;;;;;8.38;5.55;;;;;;;24.32;66.62;96378.50;2087218;28;20246;-63
2023/06/20 07:53:12;;;;;;;10.70;6.32;;;;;;;24.31;66.03;96383.00;2087806;28;20320;-62
2023/06/20 07:54:14;;;;;;;14.52;7.30;;;;;;;24.27;66.31;96385.13;2090459;28;20230;-63
2023/06/20 07:55:16;;;;;;;10.48;7.68;;;;;;;24.44;65.72;96382.53;2090889;28;20192;-63
2023/06/20 07:56:31;;;;;;;11.82;6.50;;;;;;;24.46;65.25;96375.22;2089424;28;20238;-63
2023/06/20 07:57:33;;;;;;;8.25;5.70;;;;;;;24.66;65.34;96378.47;2091330;28;20207;-62
2023/06/20 07:58:34;;;;;;;12.90;6.65;;;;;;;24.68;64.59;96380.97;2089607;28;20194;-63
2023/06/20 07:59:35;;;;;;;14.25;6.10;;;;;;;24.78;65.70;96382.50;2091163;28;20230;-62
2023/06/20 08:00:38;;;;;;;10.15;6.40;;;;;;;24.83;65.58;96378.50;2090192;28;20359;-63
2023/06/20 08:01:39;;;;;;;17.77;7.07;;;;;;;24.77;65.19;96377.31;2087038;28;20367;-63
2023/06/20 08:02:41;;;;;;;8.13;6.13;;;;;;;24.82;65.77;96382.16;2087107;28;20248;-62
2023/06/20 08:13:53;;;;;;;10.02;6.30;;;;;;;24.57;66.55;96382.06;2086218;28;20565;-60
2023/06/20 08:16:10;;;;;;;11.73;6.40;;;;;;;24.54;67.41;96377.88;2110834;27;21067;-60
2023/06/20 08:18:24;;;;;;;12.93;6.65;;;;;;;24.80;67.12;96387.66;2084696;28;20903;-60
2023/06/20 08:20:34;;;;;;;15.18;6.32;;;;;;;24.38;66.71;96384.03;2084565;28;20564;-60
2023/06/20 08:22:46;;;;;;;11.43;6.55;;;;;;;24.69;67.02;96385.31;2099435;27;20567;-60
2023/06/20 08:25:05;;;;;;;8.38;6.10;;;;;;;24.85;64.97;96385.34;2092709;27;20571;-60
2023/06/20 08:27:21;;;;;;;9.75;6.90;;;;;;;24.76;65.43;96386.34;2083850;28;20577;-60
2023/06/20 08:29:34;;;;;;;8.60;6.15;;;;;;;24.62;64.78;96390.44;2082993;28;20558;-60
2023/06/20 08:31:49;;;;;;;10.48;7.32;;;;;;;24.87;64.92;96386.00;2086052;28;20564;-60
2023/06/20 08:34:05;;;;;;;13.43;6.40;;;;;;;25.00;64.04;96377.53;2101567;27;20561;-60
2023/06/20 08:36:23;;;;;;;12.88;7.35;;;;;;;25.21;63.62;96373.50;2101301;27;20601;-60
2023/06/20 08:38:38;;;;;;;14.88;6.75;;;;;;;25.26;62.70;96363.97;2084039;28;20580;-61
2023/06/20 08:40:56;;;;;;;9.68;6.53;;;;;;;25.28;62.73;96371.84;2093073;27;20932;-60
2023/06/20 08:43:18;;;;;;;13.20;7.00;;;;;;;25.37;62.26;96381.56;2097847;27;20593;-60
2023/06/20 08:45:39;;;;;;;10.48;6.95;;;;;;;25.58;62.03;96374.84;2084299;28;20595;-60
2023/06/20 08:48:00;;;;;;;9.48;6.63;;;;;;;25.42;62.41;96373.06;2086161;27;20575;-60
2023/06/20 08:50:25;;;;;;;8.55;5.78;;;;;;;25.96;62.33;96369.75;2101578;27;20581;-60
2023/06/20 08:52:55;;;;;;;10.70;6.63;;;;;;;25.41;61.73;96371.38;2082866;28;20582;-60
2023/06/20 08:53:58;;;;;;;11.70;6.20;;;;;;;25.28;62.01;96366.50;2081109;28;20832;-60
2023/06/20 08:56:19;;;;;;;11.55;6.15;;;;;;;25.57;61.20;96373.19;2083484;28;20564;-60
2023/06/20 08:57:21;;;;;;;11.57;6.40;;;;;;;25.58;60.40;96372.19;2082092;28;20320;-60
2023/06/20 08:59:46;;;;;;;11.25;6.75;;;;;;;25.71;59.64;96359.13;2083796;28;20561;-60
2023/06/20 09:00:48;;;;;;;11.93;6.80;;;;;;;25.58;60.15;96357.00;2079126;28;20197;-60
2023/06/20 09:01:50;;;;;;;8.65;5.60;;;;;;;25.87;59.46;96358.25;2079141;28;20551;-60
2023/06/20 09:04:36;;;;;;;8.57;5.50;;;;;;;26.13;58.36;96359.03;2143437;27;20485;-60
2023/06/20 09:05:42;;;;;;;10.68;6.18;;;;;;;26.01;58.07;96358.53;2138090;27;20240;-60
2023/06/20 09:06:45;;;;;;;8.65;6.22;;;;;;;26.23;58.17;96354.28;2125485;27;20288;-60
2023/06/20 09:07:47;;;;;;;13.10;5.68;;;;;;;26.30;57.55;96351.78;2114597;27;20279;-60
2023/06/20 09:08:48;;;;;;;9.88;6.15;;;;;;;26.30;57.14;96354.47;2111426;28;20289;-60
2023/06/20 09:09:50;;;;;;;8.05;5.50;;;;;;;26.57;56.96;96347.78;2112309;28;20198;-60
2023/06/20 09:11:05;;;;;;;18.20;7.25;;;;;;;26.40;57.15;96349.72;2112309;28;20198;-60
2023/06/20 09:12:07;;;;;;;11.32;6.10;;;;;;;26.63;56.63;96348.94;2109829;28;20229;-60
2023/06/20 09:13:11;;;;;;;10.15;6.05;;;;;;;26.65;56.58;96346.88;2111876;28;20278;-60
2023/06/20 09:14:12;;;;;;;8.65;5.47;;;;;;;26.45;56.26;96344.66;2112363;28;20660;-60
2023/06/20 09:15:19;;;;;;;14.35;6.70;;;;;;;26.51;55.88;96343.97;2112290;28;20186;-60
2023/06/20 09:16:25;;;;;;;10.35;5.70;;;;;;;26.36;56.78;96330.50;2111587;28;20240;-60
2023/06/20 09:17:27;;;;;;;8.00;6.15;;;;;;;26.78;56.00;96347.19;2110987;28;20229;-60
2023/06/20 09:18:29;;;;;;;9.30;5.22;;;;;;;26.99;54.99;96348.38;2112965;28;20201;-60
2023/06/20 09:19:43;;;;;;;13.23;6.55;;;;;;;27.01;54.90;96343.69;2112270;28;20194;-60
2023/06/20 09:20:45;;;;;;;9.93;5.60;;;;;;;26.85;54.31;96347.28;2112777;28;20194;-60
2023/06/20 09:21:47;;;;;;;9.20;5.35;;;;;;;26.75;54.31;96352.06;2112878;28;20288;-60
2023/06/20 09:23:04;;;;;;;13.25;5.43;;;;;;;26.44;54.62;96344.84;2109935;28;20402;-60
2023/06/20 09:24:06;;;;;;;9.07;5.97;;;;;;;26.55;55.11;96347.09;2112200;28;20213;-60
2023/06/20 09:25:12;;;;;;;10.23;5.35;;;;;;;26.55;54.41;96353.31;2111950;28;20202;-61
2023/06/20 09:26:16;;;;;;;10.45;6.32;;;;;;;26.62;54.59;96347.25;2112067;28;20191;-62
2023/06/20 09:27:17;;;;;;;14.43;5.80;;;;;;;26.81;54.75;96348.66;2110617;28;20210;-62
2023/06/20 09:28:19;;;;;;;10.57;5.35;;;;;;;27.07;55.03;96342.97;2112073;28;21123;-61
2023/06/20 09:29:20;;;;;;;9.50;5.22;;;;;;;27.22;54.26;96342.97;2112017;28;20199;-62
2023/06/20 09:30:22;;;;;;;9.23;5.88;;;;;;;27.35;52.52;96337.84;2112106;28;20244;-60
2023/06/20 09:31:39;;;;;;;9.88;6.15;;;;;;;27.56;52.90;96328.28;2111913;28;20225;-60
2023/06/20 09:32:41;;;;;;;13.27;5.47;;;;;;;27.62;53.05;96327.56;2111820;28;20672;-60
2023/06/20 09:33:43;;;;;;;7.10;5.72;;;;;;;27.97;53.74;96330.53;2112438;28;20673;-60
2023/06/20 09:34:45;;;;;;;8.52;5.00;;;;;;;27.62;52.87;96324.06;2110208;28;20191;-60
2023/06/20 09:35:46;;;;;;;8.88;5.50;;;;;;;27.19;52.12;96330.78;2112166;28;20244;-60
2023/06/20 09:36:48;;;;;;;8.15;5.60;;;;;;;27.21;53.07;96320.72;2112333;28;20191;-60
2023/06/20 09:37:52;;;;;;;7.25;5.40;;;;;;;27.43;52.82;96328.09;2111074;28;20218;-60
2023/06/20 09:38:56;;;;;;;9.25;5.90;;;;;;;27.43;53.29;96315.53;2112234;28;20194;-60
2023/06/20 09:40:09;;;;;;;12.52;5.75;;;;;;;27.68;52.81;96315.25;2112277;28;20194;-60
2023/06/20 09:41:16;;;;;;;10.90;5.00;;;;;;;27.59;52.44;96324.41;2112354;28;20514;-60
2023/06/20 09:42:18;;;;;;;21.88;4.90;;;;;;;27.35;52.42;96318.25;2110837;28;20722;-60
2023/06/20 09:43:24;;;;;;;10.73;6.05;;;;;;;27.83;52.75;96323.31;2112045;28;20222;-60
2023/06/20 09:44:26;;;;;;;8.60;5.32;;;;;;;27.69;52.71;96327.66;2111851;28;20578;-59
2023/06/20 09:45:27;;;;;;;7.97;4.38;;;;;;;27.55;52.17;96321.25;2111952;28;20238;-59
2023/06/20 09:46:29;;;;;;;13.88;5.20;;;;;;;27.72;51.71;96321.09;2111963;28;20197;-59
2023/06/20 09:47:33;;;;;;;8.82;5.50;;;;;;;27.79;52.70;96320.16;2111577;28;20277;-60
2023/06/20 09:48:37;;;;;;;8.27;4.78;;;;;;;27.96;52.20;96322.66;2112002;28;20206;-60
2023/06/20 09:49:39;;;;;;;11.80;5.28;;;;;;;27.74;51.44;96327.94;2112093;28;20243;-59
2023/06/20 09:50:43;;;;;;;7.47;4.63;;;;;;;27.98;51.29;96318.75;2112119;28;20557;-60
2023/06/20 09:51:49;;;;;;;10.00;5.47;;;;;;;28.38;51.29;96321.16;2110887;28;20191;-60
2023/06/20 09:53:09;;;;;;;7.97;5.10;;;;;;;28.57;50.23;96326.94;2111396;28;20210;-60
2023/06/20 09:54:19;;;;;;;8.48;5.30;;;;;;;28.19;50.65;96326.09;2111474;28;20621;-60
2023/06/20 09:55:23;;;;;;;7.60;4.80;;;;;;;28.23;50.48;96317.69;2111876;28;20187;-60
2023/06/20 09:56:27;;;;;;;7.07;5.28;;;;;;;28.48;50.44;96320.84;2112043;28;20633;-60
2023/06/20 09:57:40;;;;;;;7.13;4.95;;;;;;;28.28;50.13;96317.94;2112834;28;20195;-60
2023/06/20 09:58:46;;;;;;;9.82;5.00;;;;;;;28.50;50.08;96319.63;2119888;28;20198;-60
2023/06/20 09:59:50;;;;;;;8.18;5.20;;;;;;;28.75;49.71;96313.94;2120621;28;20194;-60
2023/06/20 10:00:53;;;;;;;11.65;5.40;;;;;;;28.60;50.06;96323.88;2120235;28;20198;-60
2023/06/20 10:01:58;;;;;;;8.80;5.03;;;;;;;28.66;49.99;96320.44;2120155;28;20242;-60
2023/06/20 10:03:05;;;;;;;11.40;5.05;;;;;;;28.61;50.29;96326.38;2112789;28;20214;-60
2023/06/20 10:04:08;;;;;;;8.60;5.28;;;;;;;28.29;50.37;96317.75;2111216;28;20256;-60
2023/06/20 10:05:12;;;;;;;8.23;4.97;;;;;;;28.28;49.96;96324.13;2112052;28;20202;-60
2023/06/20 10:06:13;;;;;;;10.48;5.65;;;;;;;28.23;50.45;96321.19;2112160;28;20798;-60
2023/06/20 10:07:15;;;;;;;8.95;5.18;;;;;;;28.22;49.79;96324.06;2111290;28;20191;-60
2023/06/20 10:08:18;;;;;;;13.85;5.22;;;;;;;28.39;50.15;96314.78;2115522;28;20210;-60
2023/06/20 10:09:19;;;;;;;11.00;6.30;;;;;;;28.98;49.71;96318.31;2115696;28;20201;-60
2023/06/20 10:10:21;;;;;;;16.52;5.03;;;;;;;28.98;48.50;96318.31;2114112;28;20197;-60
2023/06/20 10:11:23;;;;;;;10.73;5.50;;;;;;;28.43;49.30;96320.59;2114989;28;20194;-60
2023/06/20 10:12:25;;;;;;;7.10;4.35;;;;;;;28.41;49.27;96307.34;2112870;28;20194;-60
2023/06/20 10:13:28;;;;;;;6.65;5.15;;;;;;;28.59;48.80;96319.53;2112028;28;20197;-60
2023/06/20 10:14:29;;;;;;;7.47;4.95;;;;;;;28.35;48.18;96302.75;2111792;28;20274;-60
2023/06/20 10:15:31;;;;;;;8.75;4.97;;;;;;;28.19;48.81;96318.03;2107330;28;20279;-60
2023/06/20 10:16:33;;;;;;;7.43;4.75;;;;;;;28.56;48.35;96311.88;2105188;28;20195;-60
2023/06/20 10:17:39;;;;;;;7.03;5.13;;;;;;;28.47;47.08;96316.53;2105776;28;20198;-60
2023/06/20 10:18:41;;;;;;;9.52;5.13;;;;;;;28.36;47.70;96317.81;2106318;28;20712;-60
2023/06/20 10:19:52;;;;;;;8.02;4.65;;;;;;;28.25;48.40;96316.47;2106204;28;20218;-60
2023/06/20 10:20:54;;;;;;;7.70;5.00;;;;;;;28.31;48.62;96312.19;2106310;28;20317;-60
2023/06/20 10:22:00;;;;;;;8.57;4.70;;;;;;;28.50;49.14;96318.81;2106360;28;20304;-60
2023/06/20 10:23:05;;;;;;;11.45;4.55;;;;;;;28.49;48.49;96318.00;2104592;28;20271;-60
2023/06/20 10:24:11;;;;;;;8.35;5.20;;;;;;;28.77;48.42;96321.81;2105958;28;20253;-60
2023/06/20 10:25:15;;;;;;;10.63;5.07;;;;;;;28.88;47.81;96317.78;2106228;28;20199;-60
2023/06/20 10:26:21;;;;;;;8.32;4.60;;;;;;;28.82;48.04;96312.16;2106010;28;20198;-60
2023/06/20 10:27:27;;;;;;;11.35;5.70;;;;;;;29.20;48.49;96311.03;2105260;28;20199;-60
2023/06/20 10:28:31;;;;;;;8.75;4.35;;;;;;;29.15;47.48;96317.00;2105614;28;20316;-60
2023/06/20 10:29:40;;;;;;;7.53;5.07;;;;;;;29.13;47.15;96313.69;2105803;28;20243;-60
2023/06/20 10:30:51;;;;;;;7.28;4.68;;;;;;;29.22;47.59;96321.63;2105923;28;20199;-60
2023/06/20 10:31:56;;;;;;;9.23;4.87;;;;;;;29.35;46.41;96326.28;2104638;28;20195;-60
2023/06/20 10:33:09;;;;;;;14.13;4.50;;;;;;;29.40;47.20;96318.47;2113313;28;20921;-60
2023/06/20 10:34:33;;;;;;;7.50;4.40;;;;;;;29.59;46.36;96316.94;2111875;28;20555;-60
2023/06/20 10:35:35;;;;;;;8.60;5.00;;;;;;;29.63;46.29;96321.72;2105770;28;20483;-60
2023/06/20 10:36:36;;;;;;;15.67;5.60;;;;;;;29.29;46.29;96317.13;2113779;28;20187;-60
2023/06/20 10:37:38;;;;;;;14.10;5.60;;;;;;;30.10;45.45;96324.72;2112760;28;20435;-60
2023/06/20 10:38:49;;;;;;;8.57;4.97;;;;;;;30.14;44.78;96325.13;2105850;28;20459;-60
2023/06/20 10:39:54;;;;;;;9.20;4.57;;;;;;;29.95;45.22;96327.56;2105994;28;20431;-60
2023/06/20 10:41:14;;;;;;;7.27;3.90;;;;;;;29.62;45.44;96316.53;2106012;28;20423;-60
2023/06/20 10:42:38;;;;;;;13.90;5.10;;;;;;;29.48;44.86;96310.25;2106174;28;20645;-60
2023/06/20 10:43:49;;;;;;;9.07;5.40;;;;;;;29.90;45.20;96318.41;2114247;28;20458;-60
2023/06/20 10:45:19;;;;;;;15.63;4.13;;;;;;;29.98;44.39;96310.19;2114281;28;20498;-60
2023/06/20 10:46:28;;;;;;;8.77;4.97;;;;;;;30.42;43.53;96308.91;2113885;28;20426;-60
2023/06/20 10:47:29;;;;;;;6.73;3.77;;;;;;;30.37;43.71;96308.69;2113283;28;20955;-60
2023/06/20 10:48:31;;;;;;;11.27;5.03;;;;;;;30.71;43.06;96309.63;2114388;28;20825;-60
2023/06/20 10:49:32;;;;;;;10.53;4.13;;;;;;;30.44;42.45;96312.22;2114241;28;21081;-60
2023/06/20 10:50:34;;;;;;;6.90;4.00;;;;;;;30.43;42.82;96307.84;2114111;28;20439;-60
2023/06/20 10:51:45;;;;;;;6.07;3.77;;;;;;;30.41;41.89;96312.63;2113907;28;20437;-61
2023/06/20 10:52:47;;;;;;;9.03;4.17;;;;;;;29.94;41.74;96319.66;2113217;28;20461;-60
2023/06/20 10:53:48;;;;;;;8.70;4.67;;;;;;;29.75;41.42;96311.25;2114238;28;20434;-61
2023/06/20 10:54:50;;;;;;;11.90;4.23;;;;;;;29.89;41.28;96314.03;2114245;28;20426;-60
2023/06/20 10:55:51;;;;;;;9.00;4.70;;;;;;;29.85;41.80;96320.81;2114325;28;20434;-60
2023/06/20 10:56:53;;;;;;;9.50;4.90;;;;;;;29.74;41.98;96312.28;2114390;28;20851;-60
2023/06/20 10:57:55;;;;;;;7.63;4.30;;;;;;;30.06;41.82;96312.69;2113767;28;20458;-60
2023/06/20 10:58:57;;;;;;;9.10;3.80;;;;;;;30.00;40.99;96309.97;2114225;28;20915;-60
2023/06/20 10:59:58;;;;;;;8.07;3.73;;;;;;;30.11;40.84;96314.78;2114122;28;20423;-60
2023/06/20 11:01:00;;;;;;;8.50;3.73;;;;;;;29.97;41.68;96308.50;2114396;28;20415;-60
2023/06/20 11:02:03;;;;;;;11.63;4.70;;;;;;;29.92;41.79;96310.97;2114379;28;20437;-60
2023/06/20 11:03:04;;;;;;;10.07;4.97;;;;;;;29.80;41.70;96307.97;2113396;28;20466;-60
2023/06/20 11:04:09;;;;;;;8.73;4.23;;;;;;;30.21;41.48;96314.44;2113840;28;20986;-60
2023/06/20 11:05:11;;;;;;;8.67;4.70;;;;;;;30.49;41.49;96306.25;2113887;28;21026;-60
2023/06/20 11:06:16;;;;;;;9.40;4.30;;;;;;;30.71;40.31;96308.81;2114192;28;20807;-60
2023/06/20 11:07:18;;;;;;;15.33;4.93;;;;;;;30.69;40.71;96306.31;2112878;28;20520;-60
2023/06/20 11:08:27;;;;;;;7.17;4.63;;;;;;;30.98;40.32;96301.56;2112662;28;21014;-60
2023/06/20 11:09:28;;;;;;;8.07;4.30;;;;;;;31.31;40.58;96303.47;2114223;28;20941;-60
2023/06/20 11:10:34;;;;;;;10.53;5.17;;;;;;;30.90;40.92;96291.81;2114194;28;20514;-60
2023/06/20 11:11:39;;;;;;;12.47;4.80;;;;;;;31.16;40.18;96292.06;2111205;28;20499;-60
2023/06/20 11:12:44;;;;;;;7.90;4.47;;;;;;;31.50;39.90;96290.19;2105554;28;20458;-60
2023/06/20 11:13:47;;;;;;;9.10;4.20;;;;;;;31.76;40.17;96283.94;2114311;28;20411;-61
2023/06/20 11:14:48;;;;;;;8.40;3.80;;;;;;;31.80;39.85;96287.88;2113958;28;20418;-60
2023/06/20 11:15:50;;;;;;;9.00;4.33;;;;;;;31.62;39.62;96287.66;2113844;28;20566;-60
2023/06/20 11:16:54;;;;;;;6.07;3.70;;;;;;;31.34;40.32;96288.75;2113908;28;20430;-61
2023/06/20 11:17:57;;;;;;;9.90;4.70;;;;;;;31.16;40.00;96282.13;2112094;28;20458;-60
2023/06/20 11:18:59;;;;;;;8.13;4.60;;;;;;;31.16;40.93;96286.69;2114060;28;20422;-60
2023/06/20 11:20:00;;;;;;;9.67;4.90;;;;;;;31.00;41.16;96277.13;2114152;28;20419;-60
2023/06/20 11:21:04;;;;;;;8.80;4.43;;;;;;;31.12;40.58;96283.56;2113830;28;21016;-60
2023/06/20 11:22:06;;;;;;;13.40;4.83;;;;;;;30.91;40.27;96276.50;2114010;28;20426;-60
2023/06/20 11:23:10;;;;;;;9.37;4.57;;;;;;;31.03;40.84;96282.94;2110911;28;20505;-60
2023/06/20 11:24:11;;;;;;;6.17;4.17;;;;;;;30.94;40.65;96278.75;2114113;28;20961;-60
2023/06/20 11:25:25;;;;;;;13.10;4.40;;;;;;;30.99;40.15;96270.06;2114017;28;20545;-60
2023/06/20 11:26:34;;;;;;;7.00;4.20;;;;;;;31.10;40.51;96280.28;2113741;28;21045;-60
2023/06/20 11:27:36;;;;;;;8.37;4.40;;;;;;;31.09;39.92;96270.50;2112057;28;20422;-60
2023/06/20 11:28:37;;;;;;;8.90;4.60;;;;;;;30.91;40.72;96271.91;2113874;28;20434;-60
2023/06/20 11:29:39;;;;;;;9.90;4.30;;;;;;;30.82;40.68;96281.25;2114127;28;20940;-60
2023/06/20 11:30:43;;;;;;;7.80;4.73;;;;;;;30.72;41.08;96270.06;2114043;28;21136;-60
2023/06/20 11:31:45;;;;;;;6.43;4.50;;;;;;;30.87;41.38;96269.88;2113992;28;20433;-60
2023/06/20 11:33:04;;;;;;;15.40;4.77;;;;;;;30.98;41.45;96277.31;2113436;28;20450;-61
2023/06/20 11:34:08;;;;;;;11.50;4.70;;;;;;;30.81;41.71;96273.38;2112989;28;20484;-60
2023/06/20 11:35:13;;;;;;;12.30;5.13;;;;;;;30.87;41.26;96276.06;2113910;28;20476;-60
2023/06/20 11:36:15;;;;;;;11.57;4.80;;;;;;;30.52;41.27;96281.59;2113997;28;20541;-60
2023/06/20 11:37:17;;;;;;;6.13;3.83;;;;;;;30.48;41.92;96271.47;2113573;28;20414;-60
2023/06/20 11:38:20;;;;;;;13.00;5.30;;;;;;;30.69;41.48;96273.13;2113557;28;20465;-60
2023/06/20 11:39:24;;;;;;;8.20;5.10;;;;;;;30.80;41.46;96282.50;2113793;28;21089;-60
2023/06/20 11:40:25;;;;;;;8.30;5.60;;;;;;;30.91;41.35;96279.19;2113897;28;20687;-60
2023/06/20 11:41:31;;;;;;;9.50;5.63;;;;;;;31.09;40.88;96282.13;2113537;28;20526;-60
2023/06/20 11:42:33;;;;;;;6.57;4.97;;;;;;;31.24;39.99;96279.22;2112299;28;20419;-59
2023/06/20 11:43:35;;;;;;;13.83;4.33;;;;;;;31.23;40.32;96279.44;2114003;28;20434;-60
2023/06/20 11:44:38;;;;;;;12.40;4.97;;;;;;;31.33;40.40;96270.94;2113263;28;20457;-60
2023/06/20 11:45:41;;;;;;;8.60;4.07;;;;;;;31.55;40.13;96282.28;2113851;28;20507;-61
2023/06/20 11:46:43;;;;;;;12.07;7.00;;;;;;;31.20;40.65;96279.84;2104201;28;20496;-61
2023/06/20 11:47:45;;;;;;;7.20;5.07;;;;;;;31.02;41.00;96275.03;2103592;28;20918;-60
2023/06/20 11:48:52;;;;;;;11.10;6.23;;;;;;;31.08;41.28;96274.25;2113698;28;20546;-61
2023/06/20 11:49:56;;;;;;;10.67;4.60;;;;;;;31.39;41.04;96268.22;2113264;28;20954;-60
2023/06/20 11:51:06;;;;;;;15.53;5.10;;;;;;;31.70;40.05;96269.41;2112683;28;20442;-60
2023/06/20 11:52:08;;;;;;;8.20;4.80;;;;;;;31.75;40.00;96277.69;2113794;28;20509;-60
2023/06/20 11:53:19;;;;;;;9.57;5.20;;;;;;;31.90;40.02;96266.66;2113036;28;20454;-60
2023/06/20 11:54:22;;;;;;;8.67;4.60;;;;;;;31.69;39.94;96267.78;2113425;28;20430;-60
2023/06/20 11:55:44;;;;;;;7.17;4.27;;;;;;;31.78;40.60;96264.84;2113443;28;20500;-60
2023/06/20 11:56:53;;;;;;;10.20;5.43;;;;;;;31.39;40.85;96257.44;2113835;28;20471;-61
2023/06/20 11:57:54;;;;;;;8.00;4.57;;;;;;;31.35;41.69;96266.97;2103788;28;20463;-61
2023/06/20 11:58:56;;;;;;;10.00;4.80;;;;;;;31.09;41.26;96273.22;2104715;28;20435;-61
2023/06/20 12:00:04;;;;;;;8.43;5.10;;;;;;;31.18;41.54;96271.97;2113738;28;20510;-61
2023/06/20 12:01:13;;;;;;;7.07;4.87;;;;;;;31.52;40.84;96261.97;2113418;28;20464;-61
2023/06/20 12:02:15;;;;;;;8.50;4.37;;;;;;;31.42;41.35;96258.88;2112686;28;20900;-61
2023/06/20 12:03:21;;;;;;;7.63;5.00;;;;;;;31.69;40.88;96254.28;2112950;28;20973;-61
2023/06/20 12:04:22;;;;;;;8.07;5.10;;;;;;;31.60;41.32;96266.31;2113738;28;20471;-61
2023/06/20 12:05:31;;;;;;;9.70;5.00;;;;;;;31.28;40.58;96258.06;2113682;28;20494;-61
2023/06/20 12:06:36;;;;;;;15.57;4.73;;;;;;;31.58;41.12;96263.81;2113606;28;20419;-60
2023/06/20 12:07:53;;;;;;;9.67;4.60;;;;;;;31.24;40.86;96260.34;2111151;28;20928;-61
2023/06/20 12:08:59;;;;;;;8.77;5.33;;;;;;;31.67;40.73;96258.22;2113146;28;20435;-61
2023/06/20 12:10:08;;;;;;;10.30;4.90;;;;;;;32.33;39.82;96254.47;2111845;28;21082;-61
2023/06/20 12:11:13;;;;;;;9.83;5.10;;;;;;;32.37;38.67;96252.97;2113360;28;20427;-61
2023/06/20 12:12:14;;;;;;;12.80;5.80;;;;;;;32.27;39.08;96249.13;2113328;28;20953;-61
2023/06/20 12:13:16;;;;;;;13.63;4.93;;;;;;;32.08;39.36;96251.66;2112457;28;20794;-61
2023/06/20 12:14:18;;;;;;;9.80;5.83;;;;;;;31.75;39.50;96258.00;2113571;28;20901;-61
2023/06/20 12:15:19;;;;;;;8.10;4.57;;;;;;;31.87;39.75;96247.38;2113599;28;20499;-61
2023/06/20 12:16:22;;;;;;;16.13;5.33;;;;;;;32.45;38.83;96253.78;2113512;28;21012;-61
2023/06/20 12:17:27;;;;;;;15.90;5.70;;;;;;;32.59;38.50;96247.25;2112491;28;20430;-61
2023/06/20 12:18:28;;;;;;;6.57;4.90;;;;;;;32.80;38.02;96246.09;2113485;28;20423;-60
2023/06/20 12:19:31;;;;;;;13.23;5.13;;;;;;;32.87;37.74;96246.03;2113422;28;20419;-60
2023/06/20 12:20:32;;;;;;;14.43;5.10;;;;;;;32.30;38.89;96235.16;2113410;28;21020;-60
2023/06/20 12:21:38;;;;;;;7.73;4.73;;;;;;;32.41;39.13;96239.88;2113227;28;20426;-60
2023/06/20 12:22:40;;;;;;;8.63;3.87;;;;;;;32.40;38.60;96241.75;2111401;28;20458;-60
2023/06/20 12:23:44;;;;;;;8.10;4.03;;;;;;;31.96;39.36;96229.91;2113538;28;20949;-60
2023/06/20 12:24:45;;;;;;;10.50;4.53;;;;;;;31.65;39.91;96234.16;2113478;28;20422;-60
2023/06/20 12:25:47;;;;;;;8.60;4.70;;;;;;;32.28;39.07;96237.25;2113342;28;20945;-60
2023/06/20 12:26:51;;;;;;;11.20;5.37;;;;;;;32.30;39.10;96232.47;2113349;28;21006;-60
2023/06/20 12:27:53;;;;;;;10.20;5.00;;;;;;;32.93;39.09;96237.06;2112602;28;20493;-60
2023/06/20 12:28:54;;;;;;;13.63;5.10;;;;;;;33.54;38.14;96231.94;2113447;28;20426;-60
2023/06/20 12:29:56;;;;;;;12.63;5.40;;;;;;;33.29;37.85;96235.50;2113507;28;20423;-60
2023/06/20 12:30:59;;;;;;;9.40;4.40;;;;;;;33.62;37.89;96230.81;2113346;28;20426;-60
2023/06/20 12:32:00;;;;;;;5.63;4.40;;;;;;;33.26;38.21;96227.00;2113045;28;20654;-60
2023/06/20 12:33:02;;;;;;;12.00;5.73;;;;;;;32.62;37.93;96232.47;2112816;28;20979;-60
2023/06/20 12:34:04;;;;;;;8.93;4.90;;;;;;;32.06;38.85;96234.81;2113396;28;20418;-60
2023/06/20 12:35:06;;;;;;;9.47;5.00;;;;;;;32.08;38.67;96222.78;2113118;28;20560;-60
2023/06/20 12:36:08;;;;;;;8.97;5.70;;;;;;;31.99;38.73;96226.75;2113249;28;20503;-60
2023/06/20 12:37:11;;;;;;;14.80;4.97;;;;;;;32.05;39.29;96228.59;2112714;28;20433;-60
2023/06/20 12:38:13;;;;;;;17.60;6.10;;;;;;;32.63;38.22;96229.53;2102814;28;20483;-60
2023/06/20 12:39:14;;;;;;;19.43;5.13;;;;;;;33.21;37.04;96224.97;2104523;28;20432;-60
2023/06/20 12:40:16;;;;;;;9.23;5.20;;;;;;;33.00;36.79;96232.44;2113326;28;20415;-60
2023/06/20 12:41:17;;;;;;;8.30;4.83;;;;;;;33.17;37.40;96221.06;2112882;28;20568;-60
2023/06/20 12:42:19;;;;;;;9.70;4.37;;;;;;;33.04;36.34;96225.53;2112800;28;20422;-60
2023/06/20 12:43:21;;;;;;;13.43;5.30;;;;;;;33.14;36.68;96214.22;2101613;28;20478;-60
2023/06/20 12:44:22;;;;;;;9.50;4.73;;;;;;;32.93;36.73;96217.31;2104909;28;20826;-60
2023/06/20 12:45:24;;;;;;;13.73;4.40;;;;;;;32.39;38.07;96218.50;2104818;28;20927;-60
2023/06/20 12:46:26;;;;;;;11.33;5.03;;;;;;;32.80;37.62;96213.66;2104722;28;20416;-60
2023/06/20 12:47:27;;;;;;;8.53;4.20;;;;;;;32.88;37.83;96224.19;2104453;28;20424;-60
2023/06/20 12:48:30;;;;;;;13.50;5.40;;;;;;;32.43;37.33;96223.44;2106285;28;20880;-60
2023/06/20 12:49:32;;;;;;;15.00;5.10;;;;;;;32.27;37.25;96230.22;2108982;28;20435;-60